Time;durP1;ratioP1;P1;durP2;ratioP2;P2;SDS_P1;SDS_P2;PMS_P1;PMS_P2;Temp;Humidity;BMP_temperature;BMP_pressure;BME280_temperature;BME280_humidity;BME280_pressure;Samples;Min_cycle;Max_cycle;Signal;HPM_P1;HPM_P2
2021/09/25 00:00:59;;;;;;;2.54;2.34;;;;;;;12.58;73.78;99811.47;451431;116;922489;-83
2021/09/25 00:02:03;;;;;;;3.42;3.05;;;;;;;12.56;73.77;99808.16;452350;116;922568;-81
2021/09/25 00:03:07;;;;;;;2.82;2.63;;;;;;;12.53;73.82;99808.64;454641;116;923149;-82
2021/09/25 00:04:11;;;;;;;2.85;2.65;;;;;;;12.53;73.90;99814.11;452921;116;923177;-85
2021/09/25 00:05:15;;;;;;;3.11;2.91;;;;;;;12.52;74.04;99809.71;455520;115;922596;-81
2021/09/25 00:06:18;;;;;;;2.94;2.74;;;;;;;12.53;74.04;99811.37;451666;113;923329;-84
2021/09/25 00:07:22;;;;;;;2.68;2.48;;;;;;;12.52;73.97;99810.55;451282;116;930640;-83
2021/09/25 00:08:25;;;;;;;2.58;2.37;;;;;;;12.52;73.95;99812.45;451276;115;923893;-81
2021/09/25 00:09:29;;;;;;;3.02;2.74;;;;;;;12.50;74.06;99811.88;455298;114;930402;-85
2021/09/25 00:10:34;;;;;;;3.04;2.82;;;;;;;12.50;74.08;99812.72;454712;116;923036;-82
2021/09/25 00:11:38;;;;;;;2.81;2.61;;;;;;;12.49;74.03;99812.95;452837;116;922527;-83
2021/09/25 00:12:41;;;;;;;3.22;2.92;;;;;;;12.48;73.99;99816.76;441941;118;923450;-83
2021/09/25 00:13:45;;;;;;;3.25;3.05;;;;;;;12.45;74.01;99804.42;453632;113;922906;-82
2021/09/25 00:14:48;;;;;;;3.31;3.03;;;;;;;12.43;73.97;99812.03;454406;116;922957;-81
2021/09/25 00:15:52;;;;;;;3.43;3.23;;;;;;;12.41;73.96;99807.87;453784;116;928916;-83
2021/09/25 00:16:56;;;;;;;3.32;3.02;;;;;;;12.41;74.04;99808.70;453777;116;930444;-82
2021/09/25 00:18:00;;;;;;;4.49;3.30;;;;;;;12.38;74.05;99814.67;451355;113;922948;-85
2021/09/25 00:19:04;;;;;;;3.20;2.99;;;;;;;12.36;74.03;99815.98;449956;116;923843;-82
2021/09/25 00:20:08;;;;;;;3.71;3.41;;;;;;;12.34;74.05;99818.98;454542;116;922942;-82
2021/09/25 00:21:12;;;;;;;3.77;3.34;;;;;;;12.33;74.08;99816.48;439221;118;922507;-83
2021/09/25 00:22:16;;;;;;;3.44;3.19;;;;;;;12.31;74.15;99819.45;450318;116;922526;-83
2021/09/25 00:23:19;;;;;;;3.46;3.18;;;;;;;12.31;74.29;99821.35;453830;116;922459;-83
2021/09/25 00:24:23;;;;;;;3.77;3.47;;;;;;;12.32;74.43;99826.58;453473;116;930436;-82
2021/09/25 00:25:26;;;;;;;4.15;3.85;;;;;;;12.33;74.46;99817.31;453914;113;930444;-82
2021/09/25 00:26:31;;;;;;;3.55;3.24;;;;;;;12.35;74.51;99822.55;453357;116;922930;-85
2021/09/25 00:27:35;;;;;;;4.39;3.90;;;;;;;12.36;74.53;99822.28;452595;113;922984;-81
2021/09/25 00:28:39;;;;;;;3.94;3.65;;;;;;;12.39;74.50;99823.70;452770;116;923070;-82
2021/09/25 00:29:42;;;;;;;4.14;3.79;;;;;;;12.40;74.47;99822.64;454235;116;922611;-83
2021/09/25 00:30:46;;;;;;;3.74;3.54;;;;;;;12.41;74.45;99830.58;452517;113;922586;-82
2021/09/25 00:31:50;;;;;;;3.99;3.66;;;;;;;12.43;74.40;99833.07;452841;114;923074;-83
2021/09/25 00:32:53;;;;;;;4.12;3.69;;;;;;;12.44;74.41;99832.84;451987;115;930640;-82
2021/09/25 00:33:57;;;;;;;3.91;3.64;;;;;;;12.45;74.43;99829.03;452949;114;930749;-84
2021/09/25 00:35:00;;;;;;;4.12;3.80;;;;;;;12.47;74.36;99831.50;455528;113;923239;-81
2021/09/25 00:36:05;;;;;;;3.83;3.55;;;;;;;12.45;74.30;99833.66;454429;115;930510;-82
2021/09/25 00:37:08;;;;;;;4.15;3.87;;;;;;;12.44;74.22;99830.09;447469;117;930543;-83
2021/09/25 00:38:12;;;;;;;4.54;4.14;;;;;;;12.44;74.22;99824.63;445325;115;923378;-83
2021/09/25 00:39:15;;;;;;;3.92;3.62;;;;;;;12.43;74.25;99833.07;456271;113;923018;-80
2021/09/25 00:40:20;;;;;;;5.34;4.36;;;;;;;12.42;74.25;99834.14;456107;113;922958;-84
2021/09/25 00:41:24;;;;;;;4.34;4.04;;;;;;;12.40;74.26;99834.41;457612;114;930553;-85
2021/09/25 00:42:27;;;;;;;4.67;4.25;;;;;;;12.38;74.31;99830.24;455833;114;930573;-81
2021/09/25 00:43:32;;;;;;;4.53;4.23;;;;;;;12.36;74.35;99833.22;454858;114;922674;-85
2021/09/25 00:44:35;;;;;;;4.24;3.94;;;;;;;12.35;74.37;99831.55;454721;115;923111;-83
2021/09/25 00:45:38;;;;;;;4.46;4.11;;;;;;;12.35;74.37;99841.68;456922;113;922561;-82
2021/09/25 00:46:44;;;;;;;4.56;4.11;;;;;;;12.34;74.38;99829.91;456956;115;922508;-83
2021/09/25 00:47:48;;;;;;;4.69;4.35;;;;;;;12.34;74.40;99829.91;457462;113;922793;-82
2021/09/25 00:48:52;;;;;;;4.35;4.01;;;;;;;12.34;74.53;99829.91;455200;114;930513;-83
2021/09/25 00:49:56;;;;;;;4.25;3.95;;;;;;;12.35;74.58;99834.28;454885;115;930689;-82
2021/09/25 00:51:00;;;;;;;3.85;3.57;;;;;;;12.35;74.52;99830.75;453215;115;930542;-81
2021/09/25 00:52:06;;;;;;;4.03;3.68;;;;;;;12.36;74.53;99827.75;455452;115;922488;-82
2021/09/25 00:53:09;;;;;;;4.23;3.91;;;;;;;12.36;74.48;99838.68;454460;115;922909;-84
2021/09/25 00:54:13;;;;;;;4.04;3.74;;;;;;;12.36;74.47;99832.38;446656;116;922733;-82
2021/09/25 00:55:16;;;;;;;4.12;3.83;;;;;;;12.37;74.54;99836.78;445504;115;930661;-82
2021/09/25 00:56:24;;;;;;;4.11;3.83;;;;;;;12.37;74.59;99836.78;456552;115;930558;-82
2021/09/25 00:57:27;;;;;;;4.22;3.79;;;;;;;12.38;74.64;99831.08;456839;115;930398;-83
2021/09/25 00:58:30;;;;;;;4.28;3.98;;;;;;;12.40;74.61;99839.88;458054;115;922624;-83
2021/09/25 00:59:35;;;;;;;4.33;3.99;;;;;;;12.44;74.62;99837.47;457646;115;930572;-83
2021/09/25 01:00:39;;;;;;;4.16;3.85;;;;;;;12.45;74.52;99834.50;459263;115;930240;-83
2021/09/25 01:01:43;;;;;;;4.28;3.96;;;;;;;12.46;74.41;99833.40;457771;115;930298;-83
2021/09/25 01:02:47;;;;;;;4.47;4.08;;;;;;;12.48;74.40;99833.16;455490;115;930337;-83
2021/09/25 01:03:51;;;;;;;4.61;4.12;;;;;;;12.49;74.34;99835.66;455747;114;922208;-81
2021/09/25 01:04:54;;;;;;;4.29;3.99;;;;;;;12.51;74.20;99838.16;456676;115;922151;-83
2021/09/25 01:05:58;;;;;;;4.06;3.77;;;;;;;12.52;74.04;99837.89;456991;115;930602;-81
2021/09/25 01:07:02;;;;;;;4.39;4.09;;;;;;;12.52;73.91;99837.05;459324;114;930091;-84
2021/09/25 01:08:06;;;;;;;4.59;4.28;;;;;;;12.50;73.89;99837.33;459410;115;922734;-83
2021/09/25 01:09:10;;;;;;;4.42;4.11;;;;;;;12.50;73.87;99840.06;457642;115;923125;-82
2021/09/25 01:10:15;;;;;;;4.38;4.08;;;;;;;12.50;73.86;99836.49;456021;115;922445;-83
2021/09/25 01:11:18;;;;;;;4.79;4.40;;;;;;;12.50;73.90;99844.70;455176;113;923057;-83
2021/09/25 01:12:22;;;;;;;4.10;3.79;;;;;;;12.50;73.95;99842.80;454520;115;922668;-83
2021/09/25 01:13:25;;;;;;;4.17;3.87;;;;;;;12.51;73.92;99836.22;455211;115;930619;-79
2021/09/25 01:14:31;;;;;;;4.62;4.34;;;;;;;12.52;73.95;99847.99;456638;115;923030;-81
2021/09/25 01:15:34;;;;;;;4.50;4.20;;;;;;;12.52;73.90;99842.52;457245;113;930531;-84
2021/09/25 01:16:38;;;;;;;4.06;3.76;;;;;;;12.50;73.83;99841.96;455573;115;922877;-82
2021/09/25 01:17:43;;;;;;;3.64;3.42;;;;;;;12.47;73.82;99840.53;459958;115;922631;-82
2021/09/25 01:18:47;;;;;;;4.43;4.02;;;;;;;12.46;73.92;99844.33;456574;113;930743;-81
2021/09/25 01:19:51;;;;;;;4.73;4.33;;;;;;;12.46;73.96;99847.07;456454;115;930618;-83
2021/09/25 01:20:57;;;;;;;3.93;3.60;;;;;;;12.45;73.95;99848.17;455130;113;922629;-81
2021/09/25 01:22:01;;;;;;;4.12;3.82;;;;;;;12.43;73.90;99844.01;456269;115;922931;-82
2021/09/25 01:23:05;;;;;;;4.41;4.11;;;;;;;12.40;73.90;99839.88;458889;115;922417;-82
2021/09/25 01:24:09;;;;;;;4.25;3.95;;;;;;;12.37;73.99;99848.55;459118;114;922557;-82
2021/09/25 01:25:13;;;;;;;4.51;4.21;;;;;;;12.35;74.01;99841.68;454890;115;930601;-83
2021/09/25 01:26:20;;;;;;;4.38;4.06;;;;;;;12.34;74.12;99845.48;456095;115;930464;-86
2021/09/25 01:27:23;;;;;;;4.22;3.92;;;;;;;12.33;74.21;99846.55;447024;117;922760;-82
2021/09/25 01:28:28;;;;;;;4.81;4.46;;;;;;;12.33;74.26;99846.55;442001;119;923537;-82
2021/09/25 01:29:32;;;;;;;4.41;4.11;;;;;;;12.33;74.28;99843.81;439825;119;930352;-83
2021/09/25 01:30:37;;;;;;;4.51;4.17;;;;;;;12.33;74.29;99847.38;437637;120;922540;-84
2021/09/25 01:31:41;;;;;;;5.11;4.79;;;;;;;12.33;74.29;99847.38;444183;118;922468;-84
2021/09/25 01:32:47;;;;;;;6.29;5.56;;;;;;;12.33;74.26;99852.85;442761;118;930582;-82
2021/09/25 01:33:52;;;;;;;5.53;5.08;;;;;;;12.32;74.31;99850.35;443424;119;923054;-81
2021/09/25 01:34:55;;;;;;;6.54;6.05;;;;;;;12.33;74.29;99846.55;451755;116;922671;-82
2021/09/25 01:35:59;;;;;;;5.10;4.71;;;;;;;12.33;74.36;99854.75;455093;116;930678;-80
2021/09/25 01:37:04;;;;;;;5.98;5.56;;;;;;;12.34;74.30;99854.52;453831;114;930523;-82
2021/09/25 01:38:08;;;;;;;5.76;5.36;;;;;;;12.34;74.33;99849.05;453233;116;923269;-82
2021/09/25 01:39:12;;;;;;;6.31;5.86;;;;;;;12.35;74.26;99858.09;453846;114;922496;-82
2021/09/25 01:40:17;;;;;;;5.74;5.29;;;;;;;12.34;74.27;99851.78;450871;116;930563;-82
2021/09/25 01:41:21;;;;;;;6.03;5.54;;;;;;;12.33;74.34;99852.02;436652;120;923232;-81
2021/09/25 01:42:24;;;;;;;5.68;5.31;;;;;;;12.34;74.45;99859.16;454365;114;923048;-82
2021/09/25 01:43:29;;;;;;;6.14;5.60;;;;;;;12.35;74.44;99856.15;452574;116;930606;-80
2021/09/25 01:44:33;;;;;;;5.81;5.26;;;;;;;12.37;74.52;99864.95;454590;116;930602;-84
2021/09/25 01:45:36;;;;;;;5.98;5.58;;;;;;;12.40;74.43;99858.17;455274;115;922455;-81
2021/09/25 01:46:41;;;;;;;6.15;5.61;;;;;;;12.43;74.43;99860.41;451981;115;930433;-81
2021/09/25 01:47:44;;;;;;;5.79;5.37;;;;;;;12.44;74.39;99862.08;455523;116;922505;-82
2021/09/25 01:48:48;;;;;;;5.52;5.12;;;;;;;12.46;74.42;99859.91;453494;116;930512;-84
2021/09/25 01:49:52;;;;;;;5.91;5.55;;;;;;;12.47;74.38;99864.30;454081;116;923052;-83
2021/09/25 01:50:57;;;;;;;6.49;5.94;;;;;;;12.49;74.31;99865.73;452156;116;922827;-82
2021/09/25 01:52:00;;;;;;;5.27;4.88;;;;;;;12.51;74.19;99865.50;454341;116;922706;-82
2021/09/25 01:53:04;;;;;;;6.01;5.35;;;;;;;12.50;74.07;99872.04;449502;116;922586;-83
2021/09/25 01:54:07;;;;;;;5.34;5.01;;;;;;;12.48;73.97;99875.01;451042;116;923165;-82
2021/09/25 01:55:12;;;;;;;6.02;5.56;;;;;;;12.46;73.95;99877.14;452384;116;930481;-83
2021/09/25 01:56:16;;;;;;;6.17;5.63;;;;;;;12.44;73.93;99879.31;453051;116;922498;-83
2021/09/25 01:57:20;;;;;;;6.05;5.61;;;;;;;12.42;73.89;99875.15;452637;115;922541;-82
2021/09/25 01:58:24;;;;;;;5.31;4.91;;;;;;;12.39;73.87;99881.95;452417;116;923019;-83
2021/09/25 01:59:27;;;;;;;5.51;5.10;;;;;;;12.37;73.97;99881.35;453056;115;930576;-82
2021/09/25 02:00:34;;;;;;;6.65;6.07;;;;;;;12.36;74.01;99887.05;452705;116;922632;-83
2021/09/25 02:01:39;;;;;;;5.58;5.10;;;;;;;12.35;74.06;99885.42;451188;116;922620;-82
2021/09/25 02:02:43;;;;;;;5.37;4.93;;;;;;;12.36;74.17;99884.32;455151;116;922910;-83
2021/09/25 02:03:47;;;;;;;6.52;6.09;;;;;;;12.36;74.19;99887.05;453413;115;922446;-83
2021/09/25 02:04:51;;;;;;;6.97;6.44;;;;;;;12.36;74.13;99887.05;453511;116;922940;-82
2021/09/25 02:05:54;;;;;;;7.68;6.89;;;;;;;12.35;74.03;99888.16;453629;114;923299;-83
2021/09/25 02:06:58;;;;;;;6.27;5.88;;;;;;;12.34;73.98;99891.95;454670;115;923063;-83
2021/09/25 02:08:04;;;;;;;6.81;6.35;;;;;;;12.33;74.03;99888.39;452319;116;923467;-82
2021/09/25 02:09:07;;;;;;;7.18;6.69;;;;;;;12.32;74.02;99892.19;451430;116;922943;-81
2021/09/25 02:10:12;;;;;;;7.31;6.81;;;;;;;12.31;74.01;99889.69;452788;115;923109;-83
2021/09/25 02:11:15;;;;;;;6.80;6.36;;;;;;;12.29;74.04;99887.22;449472;116;922548;-83
2021/09/25 02:12:19;;;;;;;6.72;6.28;;;;;;;12.30;74.10;99893.48;453833;116;922512;-82
2021/09/25 02:13:23;;;;;;;6.87;6.39;;;;;;;12.29;74.10;99897.33;456063;116;923319;-82
2021/09/25 02:14:26;;;;;;;6.68;6.17;;;;;;;12.30;74.15;99893.48;452434;116;930526;-83
2021/09/25 02:15:32;;;;;;;6.70;6.13;;;;;;;12.30;74.19;99894.33;449842;116;930646;-82
2021/09/25 02:16:36;;;;;;;7.40;6.76;;;;;;;12.31;74.19;99900.63;451752;116;922868;-82
2021/09/25 02:17:40;;;;;;;7.25;6.75;;;;;;;12.30;74.14;99896.22;454169;116;923143;-82
2021/09/25 02:18:44;;;;;;;6.56;6.11;;;;;;;12.30;74.21;99899.79;443141;117;922876;-83
2021/09/25 02:19:49;;;;;;;6.53;6.01;;;;;;;12.32;74.38;99902.29;445666;116;930801;-82
2021/09/25 02:20:54;;;;;;;6.28;5.79;;;;;;;12.35;74.45;99901.83;453186;116;930519;-80
2021/09/25 02:21:57;;;;;;;7.05;6.32;;;;;;;12.38;74.43;99904.05;453057;113;922482;-83
2021/09/25 02:23:01;;;;;;;6.57;6.12;;;;;;;12.39;74.33;99909.29;451511;115;930702;-83
2021/09/25 02:24:05;;;;;;;6.38;5.88;;;;;;;12.41;74.29;99912.59;454894;114;928032;-84
2021/09/25 02:25:09;;;;;;;6.87;6.36;;;;;;;12.43;74.51;99910.45;451582;115;922900;-81
2021/09/25 02:26:14;;;;;;;6.70;6.30;;;;;;;12.43;74.51;99910.45;455942;116;922587;-83
2021/09/25 02:27:18;;;;;;;6.26;5.86;;;;;;;12.44;74.17;99914.02;453142;116;922671;-82
2021/09/25 02:28:22;;;;;;;5.94;5.44;;;;;;;12.45;74.22;99918.42;451017;116;923144;-81
2021/09/25 02:29:25;;;;;;;5.69;5.29;;;;;;;12.46;74.23;99915.42;454526;116;930509;-83
2021/09/25 02:30:30;;;;;;;5.67;5.31;;;;;;;12.48;74.26;99913.29;455044;116;923015;-84
2021/09/25 02:31:34;;;;;;;5.95;5.54;;;;;;;12.50;74.27;99922.09;451661;116;922741;-82
2021/09/25 02:32:37;;;;;;;5.82;5.42;;;;;;;12.54;74.25;99916.95;453767;116;930570;-81
2021/09/25 02:33:41;;;;;;;7.44;6.88;;;;;;;12.56;74.11;99914.81;453709;115;931045;-83
2021/09/25 02:34:44;;;;;;;6.19;5.76;;;;;;;12.58;73.96;99918.12;454641;116;930706;-82
2021/09/25 02:35:49;;;;;;;6.22;5.78;;;;;;;12.57;73.83;99921.92;454308;115;922546;-82
2021/09/25 02:36:57;;;;;;;5.63;5.23;;;;;;;12.57;73.76;99926.59;459663;115;922620;-83
2021/09/25 02:37:59;;;;;;;6.83;6.33;;;;;;;12.55;73.77;99921.36;455577;115;922825;-81
2021/09/25 02:39:03;;;;;;;5.86;5.46;;;;;;;12.54;73.71;99925.16;455320;115;922477;-82
2021/09/25 02:40:08;;;;;;;6.99;6.38;;;;;;;12.52;73.64;99924.56;458027;115;930521;-81
2021/09/25 02:41:12;;;;;;;6.62;6.14;;;;;;;12.50;73.65;99921.26;459443;115;922950;-82
2021/09/25 02:42:16;;;;;;;6.42;6.02;;;;;;;12.48;73.67;99924.23;455473;113;922547;-81
2021/09/25 02:43:20;;;;;;;5.95;5.56;;;;;;;12.47;73.66;99925.30;457888;113;930561;-81
2021/09/25 02:44:23;;;;;;;6.52;6.03;;;;;;;12.45;73.65;99924.73;457872;115;930443;-82
2021/09/25 02:45:27;;;;;;;6.30;5.89;;;;;;;12.43;73.64;99926.03;457674;115;922728;-83
2021/09/25 02:46:31;;;;;;;6.62;6.15;;;;;;;12.40;73.68;99932.00;454111;115;922569;-84
2021/09/25 02:47:35;;;;;;;6.92;6.32;;;;;;;12.38;73.67;99934.13;459679;115;922632;-82
2021/09/25 02:48:38;;;;;;;6.74;6.24;;;;;;;12.36;73.68;99928.06;457300;115;922546;-82
2021/09/25 02:49:42;;;;;;;7.25;6.56;;;;;;;12.35;73.69;99940.09;458466;113;922495;-82
2021/09/25 02:50:46;;;;;;;6.39;5.97;;;;;;;12.33;73.67;99940.33;458820;115;922610;-82
2021/09/25 02:51:50;;;;;;;6.41;6.00;;;;;;;12.33;73.69;99934.03;456972;113;923392;-80
2021/09/25 02:52:53;;;;;;;7.16;6.50;;;;;;;12.33;73.82;99934.03;455036;113;930585;-80
2021/09/25 02:53:57;;;;;;;6.50;6.09;;;;;;;12.35;73.87;99940.09;457604;115;922460;-81
2021/09/25 02:55:00;;;;;;;6.37;5.93;;;;;;;12.36;73.87;99939.00;437654;117;930886;-81
2021/09/25 02:56:04;;;;;;;6.42;5.98;;;;;;;12.38;73.82;99940.43;443291;118;930498;-82
2021/09/25 02:57:08;;;;;;;6.16;5.68;;;;;;;12.39;73.75;99941.27;444695;115;930549;-81
2021/09/25 02:58:11;;;;;;;6.81;6.31;;;;;;;12.40;73.75;99942.94;439762;118;922269;-81
2021/09/25 02:59:15;;;;;;;6.11;5.74;;;;;;;12.39;73.70;99939.36;438990;118;922778;-81
2021/09/25 03:00:22;;;;;;;6.31;5.91;;;;;;;12.40;73.67;99945.66;446043;115;930334;-81
2021/09/25 03:01:25;;;;;;;6.62;6.18;;;;;;;12.39;73.68;99939.36;441308;117;922361;-82
2021/09/25 03:02:29;;;;;;;6.21;5.71;;;;;;;12.40;73.66;99938.30;442321;119;923047;-82
2021/09/25 03:03:33;;;;;;;6.50;5.85;;;;;;;12.40;73.61;99941.03;439367;119;922662;-82
2021/09/25 03:04:37;;;;;;;6.18;5.59;;;;;;;12.40;73.60;99943.77;439991;119;922557;-81
2021/09/25 03:05:41;;;;;;;6.15;5.75;;;;;;;12.42;73.57;99943.50;438525;119;922931;-81
2021/09/25 03:06:44;;;;;;;6.49;6.08;;;;;;;12.42;73.52;99938.03;439410;118;924539;-81
2021/09/25 03:07:48;;;;;;;6.82;6.33;;;;;;;12.43;73.45;99934.23;440336;119;930728;-81
2021/09/25 03:08:52;;;;;;;6.73;6.33;;;;;;;12.42;73.54;99936.13;438206;119;923127;-81
2021/09/25 03:09:55;;;;;;;7.59;6.91;;;;;;;12.44;73.52;99947.66;437895;119;922604;-82
2021/09/25 03:10:59;;;;;;;7.45;6.95;;;;;;;12.45;73.50;99948.50;441445;119;922997;-81
2021/09/25 03:12:03;;;;;;;7.11;6.61;;;;;;;12.45;73.44;99943.86;439623;119;922613;-80
2021/09/25 03:13:07;;;;;;;7.65;6.81;;;;;;;12.45;73.37;99943.86;438260;119;930570;-79
2021/09/25 03:14:10;;;;;;;7.04;6.59;;;;;;;12.45;73.34;99948.50;439320;119;922592;-82
2021/09/25 03:15:13;;;;;;;7.49;6.15;;;;;;;12.43;73.36;99951.47;443684;119;930560;-80
2021/09/25 03:16:18;;;;;;;7.26;6.75;;;;;;;12.43;73.38;99950.63;441720;119;922617;-81
2021/09/25 03:17:21;;;;;;;5.97;5.57;;;;;;;12.42;73.40;99952.53;438864;119;930587;-82
2021/09/25 03:18:25;;;;;;;7.13;6.61;;;;;;;12.41;73.48;99950.03;440515;119;922693;-81
2021/09/25 03:19:28;;;;;;;6.37;5.87;;;;;;;12.42;73.50;99952.53;435809;120;923034;-81
2021/09/25 03:20:33;;;;;;;6.91;6.39;;;;;;;12.41;73.50;99950.03;438870;120;923121;-80
2021/09/25 03:21:37;;;;;;;6.62;6.19;;;;;;;12.41;73.46;99955.50;436944;120;922562;-81
2021/09/25 03:22:40;;;;;;;6.42;5.99;;;;;;;12.40;73.48;99953.87;445411;117;930448;-80
2021/09/25 03:23:44;;;;;;;6.63;6.14;;;;;;;12.39;73.39;99961.23;443257;118;930650;-81
2021/09/25 03:24:47;;;;;;;7.36;6.80;;;;;;;12.39;73.39;99961.23;443185;118;930354;-82
2021/09/25 03:25:51;;;;;;;6.61;6.14;;;;;;;12.41;73.64;99961.80;442719;118;930562;-81
2021/09/25 03:26:55;;;;;;;6.42;6.01;;;;;;;12.43;73.59;99961.57;443982;118;922566;-81
2021/09/25 03:27:58;;;;;;;6.56;6.08;;;;;;;12.43;73.54;99961.57;443735;118;923119;-81
2021/09/25 03:29:02;;;;;;;7.60;7.00;;;;;;;12.44;73.53;99960.50;446915;118;931117;-81
2021/09/25 03:30:08;;;;;;;9.33;6.74;;;;;;;12.44;73.46;99966.81;447632;117;930564;-81
2021/09/25 03:31:12;;;;;;;7.16;6.58;;;;;;;12.43;73.39;99958.84;443605;118;923309;-81
2021/09/25 03:32:15;;;;;;;6.78;6.30;;;;;;;12.42;73.45;99962.64;445798;116;922578;-81
2021/09/25 03:33:18;;;;;;;6.87;6.44;;;;;;;12.42;73.58;99965.38;448441;118;930522;-81
2021/09/25 03:34:22;;;;;;;6.69;6.27;;;;;;;12.44;73.58;99963.23;446790;118;922906;-82
2021/09/25 03:35:26;;;;;;;7.72;7.05;;;;;;;12.44;73.47;99963.23;445121;118;922460;-81
2021/09/25 03:36:31;;;;;;;7.58;6.99;;;;;;;12.43;73.40;99964.30;445507;117;923493;-81
2021/09/25 03:37:34;;;;;;;7.46;6.94;;;;;;;12.41;73.32;99970.00;435448;119;922536;-81
2021/09/25 03:38:38;;;;;;;7.18;6.68;;;;;;;12.40;73.23;99970.27;435304;120;922506;-80
2021/09/25 03:39:41;;;;;;;7.28;6.75;;;;;;;12.38;73.25;99966.94;438671;117;922679;-80
2021/09/25 03:40:46;;;;;;;7.43;6.94;;;;;;;12.37;73.28;99962.53;436951;120;925708;-81
2021/09/25 03:41:50;;;;;;;7.66;7.04;;;;;;;12.36;73.31;99969.91;441449;118;922507;-81
2021/09/25 03:42:56;;;;;;;7.74;7.11;;;;;;;12.37;73.31;99965.27;437912;120;922685;-81
2021/09/25 03:43:59;;;;;;;8.09;7.53;;;;;;;12.37;73.36;99970.73;441421;119;922979;-81
2021/09/25 03:45:04;;;;;;;8.69;7.29;;;;;;;12.39;73.37;99968.60;437233;120;922497;-81
2021/09/25 03:46:07;;;;;;;8.52;7.92;;;;;;;12.40;73.37;99970.27;442374;118;930532;-81
2021/09/25 03:47:11;;;;;;;7.86;7.03;;;;;;;12.40;73.32;99975.73;434490;120;930527;-80
2021/09/25 03:48:16;;;;;;;7.83;7.28;;;;;;;12.39;73.26;99972.17;446063;118;930814;-81
2021/09/25 03:49:19;;;;;;;7.44;6.94;;;;;;;12.39;73.21;99976.80;436038;120;930476;-81
2021/09/25 03:50:23;;;;;;;7.81;7.31;;;;;;;12.38;73.25;99978.70;444792;118;930559;-81
2021/09/25 03:51:27;;;;;;;7.82;7.29;;;;;;;12.38;73.21;99969.67;435661;119;922954;-80
2021/09/25 03:52:30;;;;;;;7.50;6.96;;;;;;;12.37;73.31;99971.57;436083;120;930601;-81
2021/09/25 03:53:34;;;;;;;7.64;7.11;;;;;;;12.37;73.30;99976.20;437492;118;930434;-82
2021/09/25 03:54:37;;;;;;;7.57;7.08;;;;;;;12.38;73.36;99972.41;442353;118;930432;-81
2021/09/25 03:55:40;;;;;;;8.60;7.93;;;;;;;12.38;73.45;99972.41;434649;118;922650;-81
2021/09/25 03:56:45;;;;;;;8.10;7.54;;;;;;;12.41;73.50;99974.64;441757;116;930477;-80
2021/09/25 03:57:48;;;;;;;8.21;7.61;;;;;;;12.42;73.55;99979.88;435316;119;922650;-82
2021/09/25 03:58:52;;;;;;;8.28;7.75;;;;;;;12.46;73.55;99974.74;434847;120;930982;-81
2021/09/25 03:59:55;;;;;;;7.78;7.25;;;;;;;12.51;73.59;99974.88;436151;118;923071;-81
2021/09/25 04:01:00;;;;;;;8.60;7.98;;;;;;;12.56;73.46;99974.98;443812;118;922590;-82
2021/09/25 04:02:04;;;;;;;7.67;7.08;;;;;;;12.58;73.26;99978.28;438226;118;922987;-81
2021/09/25 04:03:11;;;;;;;8.32;7.76;;;;;;;12.59;73.21;99974.48;440289;119;922564;-80
2021/09/25 04:04:15;;;;;;;7.80;7.20;;;;;;;12.60;73.23;99976.15;433941;118;923172;-82
2021/09/25 04:05:19;;;;;;;8.93;8.29;;;;;;;12.63;73.25;99974.81;436253;120;922484;-81
2021/09/25 04:06:26;;;;;;;8.31;7.51;;;;;;;12.65;73.16;99980.88;436041;120;930478;-81
2021/09/25 04:07:29;;;;;;;8.82;7.78;;;;;;;12.68;73.08;99985.88;441467;120;923247;-81
2021/09/25 04:08:32;;;;;;;8.08;7.37;;;;;;;12.67;73.03;99987.79;440568;120;923070;-81
2021/09/25 04:09:37;;;;;;;8.16;7.60;;;;;;;12.67;72.99;99982.31;435331;120;930640;-81
2021/09/25 04:10:41;;;;;;;8.57;7.96;;;;;;;12.66;73.02;99983.39;442263;118;930563;-80
2021/09/25 04:11:48;;;;;;;9.06;8.23;;;;;;;12.66;73.12;99988.02;433099;121;923728;-81
2021/09/25 04:12:50;;;;;;;8.96;8.00;;;;;;;12.66;73.14;99988.02;442742;116;922674;-80
2021/09/25 04:13:53;;;;;;;9.34;8.63;;;;;;;12.67;73.11;99987.79;443072;118;922688;-81
2021/09/25 04:14:56;;;;;;;9.13;8.32;;;;;;;12.67;73.08;99993.26;439550;118;922570;-81
2021/09/25 04:15:59;;;;;;;9.34;8.40;;;;;;;12.67;73.05;99995.16;434145;118;922842;-80
2021/09/25 04:17:03;;;;;;;9.18;8.31;;;;;;;12.67;73.20;99992.42;441388;118;922508;-80
2021/09/25 04:18:08;;;;;;;7.92;7.33;;;;;;;12.68;73.22;99996.83;432904;121;930574;-80
2021/09/25 04:19:12;;;;;;;8.51;7.84;;;;;;;12.69;73.20;99995.73;434210;120;930525;-81
2021/09/25 04:20:16;;;;;;;9.23;8.49;;;;;;;12.68;73.16;99994.09;442122;116;922960;-81
2021/09/25 04:21:20;;;;;;;9.60;8.95;;;;;;;12.68;73.20;99994.09;437485;118;930405;-80
2021/09/25 04:22:24;;;;;;;9.59;8.73;;;;;;;12.68;73.34;99994.89;442722;118;923106;-82
2021/09/25 04:23:27;;;;;;;8.69;7.87;;;;;;;12.69;73.34;99998.47;434385;119;930569;-80
2021/09/25 04:24:31;;;;;;;9.27;8.54;;;;;;;12.71;73.27;99999.06;435316;120;923011;-80
2021/09/25 04:25:34;;;;;;;9.63;8.86;;;;;;;12.71;73.30;99999.06;443069;118;930499;-81
2021/09/25 04:26:38;;;;;;;9.42;8.66;;;;;;;12.72;73.29;100003.47;439047;118;922999;-81
2021/09/25 04:27:42;;;;;;;9.12;8.52;;;;;;;12.72;73.24;100003.47;443409;116;922559;-80
2021/09/25 04:28:45;;;;;;;9.72;9.08;;;;;;;12.73;73.30;99997.77;428005;122;928110;-81
2021/09/25 04:29:49;;;;;;;9.02;8.22;;;;;;;12.74;73.31;100002.13;445642;117;930707;-81
2021/09/25 04:30:54;;;;;;;9.87;9.07;;;;;;;12.75;73.33;100003.80;452708;115;927297;-81
2021/09/25 04:31:57;;;;;;;9.16;8.54;;;;;;;12.77;73.29;100003.56;455356;115;923007;-81
2021/09/25 04:33:01;;;;;;;10.39;9.54;;;;;;;12.78;73.20;99997.86;433895;118;922988;-82
2021/09/25 04:34:05;;;;;;;9.95;9.07;;;;;;;12.78;73.15;100000.59;442403;118;930506;-81
2021/09/25 04:35:09;;;;;;;12.89;10.14;;;;;;;12.79;73.15;99998.69;438495;120;922788;-81
2021/09/25 04:36:12;;;;;;;10.38;9.45;;;;;;;12.79;73.17;100004.97;422614;124;930182;-83
2021/09/25 04:37:16;;;;;;;9.73;8.95;;;;;;;12.80;73.19;100009.37;444263;115;923373;-83
2021/09/25 04:38:20;;;;;;;10.27;9.44;;;;;;;12.82;73.25;100003.66;451808;115;922901;-80
2021/09/25 04:39:24;;;;;;;10.54;9.54;;;;;;;12.83;73.22;100008.91;455612;115;930513;-80
2021/09/25 04:40:29;;;;;;;11.21;10.09;;;;;;;12.86;73.13;100007.56;454616;115;922451;-81
2021/09/25 04:41:33;;;;;;;9.99;9.12;;;;;;;12.86;73.12;100007.56;452036;115;922950;-82
2021/09/25 04:42:37;;;;;;;10.64;8.66;;;;;;;12.87;73.08;100001.86;452077;115;923067;-80
2021/09/25 04:43:40;;;;;;;11.42;9.42;;;;;;;12.89;73.12;100001.62;454303;115;923036;-82
2021/09/25 04:44:44;;;;;;;10.41;9.51;;;;;;;12.91;73.08;100008.50;455262;115;922998;-81
2021/09/25 04:45:47;;;;;;;10.52;9.36;;;;;;;12.93;72.93;100019.20;453571;115;930540;-82
2021/09/25 04:46:51;;;;;;;10.82;9.85;;;;;;;12.93;72.84;100017.30;452471;115;922867;-83
2021/09/25 04:47:55;;;;;;;11.00;10.24;;;;;;;12.91;72.85;100022.17;451285;115;922834;-81
2021/09/25 04:48:58;;;;;;;11.33;10.32;;;;;;;12.90;72.87;100017.77;454927;115;930724;-86
2021/09/25 04:50:02;;;;;;;9.93;9.22;;;;;;;12.90;72.95;100016.97;455816;115;922931;-82
2021/09/25 04:51:06;;;;;;;10.39;9.62;;;;;;;12.88;72.98;100022.68;452633;115;922547;-82
2021/09/25 04:52:10;;;;;;;10.74;9.87;;;;;;;12.88;73.05;100017.20;455091;115;922470;-82
2021/09/25 04:53:14;;;;;;;11.35;10.43;;;;;;;12.87;73.08;100018.27;445326;118;930580;-81
2021/09/25 04:54:18;;;;;;;10.85;9.96;;;;;;;12.86;73.07;100022.08;431207;121;922823;-81
2021/09/25 04:55:22;;;;;;;11.22;10.19;;;;;;;12.86;73.03;100026.72;447418;116;923069;-81
2021/09/25 04:56:25;;;;;;;10.95;10.16;;;;;;;12.83;73.03;100019.84;451945;115;930165;-81
2021/09/25 04:57:29;;;;;;;10.74;10.06;;;;;;;12.81;73.20;100024.72;454897;115;922597;-81